Kelso, CA

8:15 PM PST on December 07, 2016 (GMT -0800)
Fort Irwin/Barstow, Bicycle L | | Change Station

Elev 2349 ft 35.28 °N, 116.63 °W | Updated 20 minutes ago

Clear
Clear
42 °F
Feels Like 42 °F
N
1
Wind Variable Wind from ESE

Today
High -- | Low -- °F
--% Chance of Precip.
Yesterday
High -- | Low -- °F
Precip. -- in
Pressure 30.26 in
Visibility 10.0 miles
Clouds Clear
Dew Point 8 °F
Humidity 25%
Rainfall 0.00 in
Snow Depth Not available.
6:37 AM 4:30 PM
First Quarter, 59% visible
METAR KBYS 080355Z AUTO 11001KT 10SM CLR 06/M13 A3019 RMK AO2 SLP246 WND DATA ESTMD T00581131 PWINO $
Pressure 30.26 in
Visibility 10.0 miles
Clouds Clear
Dew Point 8 °F
Humidity 25%
Rainfall 0.00 in
Snow Depth Not available.
6:37 AM 4:30 PM
First Quarter, 59% visible
METAR KBYS 080355Z AUTO 11001KT 10SM CLR 06/M13 A3019 RMK AO2 SLP246 WND DATA ESTMD T00581131 PWINO $

10-Day Weather Forecast

Almanac

Astronomy

Dec. 07, 2016 Rise Set
Actual Time
Civil Twilight
Nautical Twilight
Astronomical Twilight
Moon
Length of Visible Light
Length of Day
Tomorrow will be .
, % of the Moon is Illuminated

Today's Extremes

State Highs State Lows

Community

WunderPhotos

Upload Photos

1,956,259 photos uploaded!

WunderBlog® & News

Nearby

Air Quality

  Air Quality AQ Index Pollutant
Not available.

Snow Depth

Station Depth Elevation

Earthquake Activity

City Distance Mag. Time & Date
Minimum magnitude displayed is 2.5.

Coastal Water Temperatures

Place Temperature

Stations

Nearby Weather Stations

Station Location Temp. Windchill Dew Point Humidity Wind Precip. Elev Updated Type
                   

Watches & Warnings

There are currently no watches in effect.